Time,TemperatureF,DewpointF,PressureIn,WindDirection,WindDirectionDegrees,WindSpeedMPH,WindSpeedGustMPH,Humidity,HourlyPrecipIn,Conditions,Clouds,dailyrainin,SolarRadiationWatts/m^2,SoftwareType,DateUTC
2013-02-21 00:21:00,37.0,29.0,30.04,West,277,4.0,5.0,73,-99.99,,,-99.99,0.000000,,2013-02-21 08:21:00,
2013-02-21 00:31:00,37.0,29.0,30.04,West,277,4.0,5.0,73,-99.99,,,-99.99,0.000000,,2013-02-21 08:31:00,
2013-02-21 00:40:00,37.0,31.0,30.05,WNW,297,1.0,2.0,81,-99.99,,,-99.99,0.000000,,2013-02-21 08:40:00,
2013-02-21 01:22:00,37.0,31.0,30.05,WNW,297,1.0,2.0,81,-99.99,,,-99.99,0.000000,,2013-02-21 09:22:00,
2013-02-21 01:31:00,37.0,31.0,30.05,WNW,297,1.0,2.0,81,-99.99,,,-99.99,0.000000,,2013-02-21 09:31:00,
2013-02-21 01:40:00,38.0,28.0,30.05,NNE,29,4.0,5.0,68,-99.99,,,-99.99,0.000000,,2013-02-21 09:40:00,
2013-02-21 02:21:00,38.0,28.0,30.05,NNE,29,4.0,5.0,68,-99.99,,,-99.99,0.000000,,2013-02-21 10:21:00,
2013-02-21 02:31:00,38.0,28.0,30.05,NNE,29,4.0,5.0,68,-99.99,,,-99.99,0.000000,,2013-02-21 10:31:00,
2013-02-21 02:40:00,35.0,29.0,30.03,NW,316,6.0,8.0,79,-99.99,,,-99.99,0.000000,,2013-02-21 10:40:00,
2013-02-21 03:21:00,35.0,29.0,30.03,NW,316,6.0,8.0,79,-99.99,,,-99.99,0.000000,,2013-02-21 11:21:00,
2013-02-21 03:31:00,35.0,29.0,30.03,NW,316,6.0,8.0,79,-99.99,,,-99.99,0.000000,,2013-02-21 11:31:00,
2013-02-21 03:40:00,37.0,27.0,30.03,NW,305,4.0,11.0,68,-99.99,,,-99.99,0.000000,,2013-02-21 11:40:00,
2013-02-21 04:21:00,37.0,27.0,30.03,NW,305,4.0,11.0,68,-99.99,,,-99.99,0.000000,,2013-02-21 12:21:00,
2013-02-21 04:32:00,37.0,27.0,30.03,NW,305,4.0,11.0,68,-99.99,,,-99.99,0.000000,,2013-02-21 12:32:00,
2013-02-21 04:40:00,36.0,27.0,30.02,NW,312,10.0,16.0,69,-99.99,,,-99.99,0.000000,,2013-02-21 12:40:00,
2013-02-21 05:22:00,36.0,27.0,30.02,NW,312,10.0,16.0,69,-99.99,,,-99.99,0.000000,,2013-02-21 13:22:00,
2013-02-21 05:32:00,36.0,27.0,30.02,NW,312,10.0,16.0,69,-99.99,,,-99.99,0.000000,,2013-02-21 13:32:00,
2013-02-21 05:40:00,36.0,28.0,30.02,NW,308,7.0,10.0,74,-99.99,,,-99.99,0.000000,,2013-02-21 13:40:00,
2013-02-21 06:21:00,36.0,28.0,30.02,NW,308,7.0,10.0,74,-99.99,,,-99.99,0.000000,,2013-02-21 14:21:00,
2013-02-21 06:32:00,36.0,28.0,30.02,NW,308,7.0,10.0,74,-99.99,,,-99.99,0.000000,,2013-02-21 14:32:00,
2013-02-21 06:40:00,36.0,33.0,30.02,NW,309,10.0,14.0,87,-99.99,,,-99.99,1.000000,,2013-02-21 14:40:00,
2013-02-21 07:21:00,36.0,33.0,30.02,NW,309,10.0,14.0,87,-99.99,,,-99.99,1.000000,,2013-02-21 15:21:00,
2013-02-21 07:31:00,36.0,33.0,30.02,NW,309,10.0,14.0,87,-99.99,,,-99.99,1.000000,,2013-02-21 15:31:00,
2013-02-21 07:40:00,39.0,30.0,30.04,NNW,327,8.0,17.0,69,-99.99,,,-99.99,56.000000,,2013-02-21 15:40:00,
2013-02-21 08:32:00,39.0,30.0,30.04,NNW,327,8.0,17.0,69,-99.99,,,-99.99,56.000000,,2013-02-21 16:32:00,
2013-02-21 08:40:00,41.0,30.0,30.05,NW,307,5.0,9.0,65,-99.99,,,-99.99,390.000000,,2013-02-21 16:40:00,
2013-02-21 09:21:00,41.0,30.0,30.05,NW,307,5.0,9.0,65,-99.99,,,-99.99,390.000000,,2013-02-21 17:21:00,
2013-02-21 09:32:00,41.0,30.0,30.05,NW,307,5.0,9.0,65,-99.99,,,-99.99,390.000000,,2013-02-21 17:32:00,
2013-02-21 09:40:00,44.0,28.0,30.06,NE,54,6.0,16.0,52,-99.99,,,-99.99,581.000000,,2013-02-21 17:40:00,
2013-02-21 10:22:00,44.0,28.0,30.06,NE,54,6.0,16.0,52,-99.99,,,-99.99,581.000000,,2013-02-21 18:22:00,
2013-02-21 10:31:00,44.0,28.0,30.06,NE,54,6.0,16.0,52,-99.99,,,-99.99,581.000000,,2013-02-21 18:31:00,
2013-02-21 10:40:00,45.0,34.0,30.08,SW,220,4.0,8.0,64,-99.99,,,-99.99,723.000000,,2013-02-21 18:40:00,
2013-02-21 11:21:00,45.0,34.0,30.08,SW,220,4.0,8.0,64,-99.99,,,-99.99,723.000000,,2013-02-21 19:21:00,
2013-02-21 11:31:00,45.0,34.0,30.08,SW,220,4.0,8.0,64,-99.99,,,-99.99,723.000000,,2013-02-21 19:31:00,
2013-02-21 11:40:00,46.0,35.0,30.09,WNW,286,4.0,9.0,66,-99.99,,,-99.99,790.000000,,2013-02-21 19:40:00,
2013-02-21 12:21:00,46.0,35.0,30.09,WNW,286,4.0,9.0,66,-99.99,,,-99.99,790.000000,,2013-02-21 20:21:00,
2013-02-21 12:31:00,46.0,35.0,30.09,WNW,286,4.0,9.0,66,-99.99,,,-99.99,790.000000,,2013-02-21 20:31:00,
2013-02-21 12:40:00,46.0,34.0,30.08,WNW,286,9.0,15.0,63,-99.99,,,-99.99,791.000000,,2013-02-21 20:40:00,
2013-02-21 13:21:00,46.0,34.0,30.08,WNW,286,9.0,15.0,63,-99.99,,,-99.99,791.000000,,2013-02-21 21:21:00,
2013-02-21 13:31:00,46.0,34.0,30.08,WNW,286,9.0,15.0,63,-99.99,,,-99.99,791.000000,,2013-02-21 21:31:00,
2013-02-21 13:40:00,47.0,34.0,30.07,West,263,6.0,12.0,62,-99.99,,,-99.99,740.000000,,2013-02-21 21:40:00,
2013-02-21 14:21:00,47.0,34.0,30.07,West,263,6.0,12.0,62,-99.99,,,-99.99,740.000000,,2013-02-21 22:21:00,
2013-02-21 14:31:00,47.0,34.0,30.07,West,263,6.0,12.0,62,-99.99,,,-99.99,740.000000,,2013-02-21 22:31:00,
2013-02-21 14:40:00,48.0,37.0,30.07,WSW,252,5.0,8.0,64,-99.99,,,-99.99,607.000000,,2013-02-21 22:40:00,
2013-02-21 15:21:00,48.0,37.0,30.07,WSW,252,5.0,8.0,64,-99.99,,,-99.99,607.000000,,2013-02-21 23:21:00,
2013-02-21 15:31:00,48.0,37.0,30.07,WSW,252,5.0,8.0,64,-99.99,,,-99.99,607.000000,,2013-02-21 23:31:00,
2013-02-21 15:40:00,50.0,33.0,30.08,West,276,4.0,8.0,53,-99.99,,,-99.99,434.000000,,2013-02-21 23:40:00,
2013-02-21 16:21:00,50.0,33.0,30.08,West,276,4.0,8.0,53,-99.99,,,-99.99,434.000000,,2013-02-22 00:21:00,
2013-02-21 16:31:00,50.0,33.0,30.08,West,276,4.0,8.0,53,-99.99,,,-99.99,434.000000,,2013-02-22 00:31:00,
2013-02-21 16:40:00,51.0,34.0,30.09,WNW,289,4.0,9.0,53,-99.99,,,-99.99,231.000000,,2013-02-22 00:40:00,
2013-02-21 17:21:00,51.0,34.0,30.09,WNW,289,4.0,9.0,53,-99.99,,,-99.99,231.000000,,2013-02-22 01:21:00,
2013-02-21 17:32:00,51.0,34.0,30.09,WNW,289,4.0,9.0,53,-99.99,,,-99.99,231.000000,,2013-02-22 01:32:00,
2013-02-21 17:40:00,47.0,35.0,30.09,SSE,151,2.0,5.0,63,-99.99,,,-99.99,49.000000,,2013-02-22 01:40:00,
2013-02-21 18:21:00,47.0,35.0,30.09,SSE,151,2.0,5.0,63,-99.99,,,-99.99,49.000000,,2013-02-22 02:21:00,
2013-02-21 18:31:00,47.0,35.0,30.09,SSE,151,2.0,5.0,63,-99.99,,,-99.99,49.000000,,2013-02-22 02:31:00,
2013-02-21 18:40:00,46.0,25.0,30.11,SW,216,1.0,2.0,43,-99.99,,,-99.99,0.000000,,2013-02-22 02:40:00,
2013-02-21 19:21:00,46.0,25.0,30.11,SW,216,1.0,2.0,43,-99.99,,,-99.99,0.000000,,2013-02-22 03:21:00,
2013-02-21 19:31:00,46.0,25.0,30.11,SW,216,1.0,2.0,43,-99.99,,,-99.99,0.000000,,2013-02-22 03:31:00,
2013-02-21 19:40:00,45.0,29.0,30.12,SE,128,2.0,5.0,52,-99.99,,,-99.99,0.000000,,2013-02-22 03:40:00,
2013-02-21 20:21:00,45.0,29.0,30.12,SE,128,2.0,5.0,52,-99.99,,,-99.99,0.000000,,2013-02-22 04:21:00,
2013-02-21 20:32:00,45.0,29.0,30.12,SE,128,2.0,5.0,52,-99.99,,,-99.99,0.000000,,2013-02-22 04:32:00,
2013-02-21 20:40:00,44.0,26.0,30.14,East,94,6.0,11.0,48,-99.99,,,-99.99,0.000000,,2013-02-22 04:40:00,
2013-02-21 21:22:00,44.0,26.0,30.14,East,94,6.0,11.0,48,-99.99,,,-99.99,0.000000,,2013-02-22 05:22:00,
2013-02-21 21:32:00,44.0,26.0,30.14,East,94,6.0,11.0,48,-99.99,,,-99.99,0.000000,,2013-02-22 05:32:00,
2013-02-21 21:40:00,45.0,25.0,30.15,East,84,5.0,10.0,46,-99.99,,,-99.99,0.000000,,2013-02-22 05:40:00,
2013-02-21 22:21:00,45.0,25.0,30.15,East,84,5.0,10.0,46,-99.99,,,-99.99,0.000000,,2013-02-22 06:21:00,
2013-02-21 22:31:00,45.0,25.0,30.15,East,84,5.0,10.0,46,-99.99,,,-99.99,0.000000,,2013-02-22 06:31:00,
2013-02-21 22:40:00,45.0,21.0,30.16,NE,55,1.0,4.0,38,-99.99,,,-99.99,0.000000,,2013-02-22 06:40:00,
2013-02-21 23:21:00,45.0,21.0,30.16,NE,55,1.0,4.0,38,-99.99,,,-99.99,0.000000,,2013-02-22 07:21:00,
2013-02-21 23:31:00,45.0,21.0,30.16,NE,55,1.0,4.0,38,-99.99,,,-99.99,0.000000,,2013-02-22 07:31:00,